createdAt,value
2023-08-14T00:20:00.693Z,47.65
2023-08-14T00:31:27.134Z,47.78
2023-08-14T00:34:51.780Z,45.85
2023-08-14T00:39:44.083Z,47.22
2023-08-14T01:11:19.883Z,47.53
2023-08-14T01:15:00.457Z,47.75
2023-08-14T01:46:15.252Z,46.80
2023-08-14T01:49:41.678Z,47.75
2023-08-14T01:56:39.242Z,48.03
2023-08-14T02:11:20.310Z,46.80
2023-08-14T02:19:37.554Z,47.80
2023-08-14T02:22:13.884Z,46.30
2023-08-14T02:25:36.616Z,46.50
2023-08-14T02:31:42.912Z,46.03
2023-08-14T02:38:22.940Z,45.85
2023-08-14T03:22:23.032Z,47.00
2023-08-14T04:10:43.025Z,45.03
2023-08-14T04:24:45.994Z,47.15
2023-08-14T04:28:12.325Z,46.72
2023-08-14T04:34:40.921Z,45.08
2023-08-14T04:41:32.815Z,45.50
2023-08-14T04:55:23.982Z,44.58
2023-08-14T05:05:31.114Z,43.92
2023-08-14T05:09:00.359Z,42.88
2023-08-14T05:23:30.300Z,43.03
2023-08-14T05:30:54.370Z,42.60
2023-08-14T05:47:52.991Z,42.90
2023-08-14T05:51:29.348Z,42.05
2023-08-14T05:57:57.515Z,42.38
2023-08-14T06:04:16.726Z,42.38
2023-08-14T06:11:51.942Z,43.05
2023-08-14T06:28:21.603Z,44.33
2023-08-14T07:02:16.807Z,41.78
2023-08-14T07:05:35.332Z,38.40
2023-08-14T07:13:14.867Z,38.33
2023-08-14T07:59:53.609Z,32.58
2023-08-14T08:06:52.014Z,31.50
2023-08-14T08:25:10.269Z,28.10
2023-08-14T08:28:45.663Z,28.52
2023-08-14T08:36:07.372Z,30.95
2023-08-14T08:51:35.688Z,31.10
2023-08-14T08:59:37.531Z,29.73
2023-08-14T09:03:30.845Z,30.38
2023-08-14T09:06:47.551Z,30.80
2023-08-14T09:10:25.621Z,37.42
2023-08-14T09:40:19.999Z,40.63
2023-08-14T09:47:51.887Z,32.55
2023-08-14T09:51:20.972Z,17.70
2023-08-14T09:54:52.566Z,7.13
2023-08-14T10:12:05.564Z,5.30
2023-08-14T19:31:09.512Z,7.97
2023-08-14T19:33:38.093Z,7.25
2023-08-14T19:36:07.239Z,7.35
2023-08-14T19:38:35.822Z,7.70
2023-08-14T19:41:04.434Z,7.05
2023-08-14T19:43:32.793Z,8.07
2023-08-14T19:46:01.683Z,31.67
2023-08-14T19:48:31.580Z,50.63
2023-08-14T19:50:59.736Z,41.60
2023-08-14T19:53:28.086Z,36.78
2023-08-14T19:55:57.315Z,16.85
2023-08-14T19:58:25.893Z,19.33
2023-08-14T20:00:58.909Z,48.13
2023-08-14T20:03:27.648Z,69.70
2023-08-14T20:05:57.467Z,78.40
2023-08-14T20:08:26.630Z,74.85
2023-08-14T20:11:03.335Z,71.82
2023-08-14T20:21:31.544Z,27.45
2023-08-14T20:23:59.774Z,16.92
2023-08-14T20:26:31.771Z,9.32
2023-08-14T20:28:59.797Z,13.23
2023-08-14T20:31:28.184Z,13.75
2023-08-14T20:33:56.296Z,28.17
2023-08-14T20:36:27.500Z,10.75
2023-08-14T20:38:57.413Z,7.90
2023-08-14T20:41:29.237Z,9.77
2023-08-14T20:43:58.014Z,9.90
2023-08-14T20:46:26.504Z,12.10
2023-08-14T20:48:54.948Z,9.30
2023-08-14T20:51:23.622Z,9.93
2023-08-14T20:53:52.213Z,10.73
2023-08-14T20:56:22.196Z,12.18
2023-08-14T20:58:50.719Z,9.00
2023-08-14T21:01:19.508Z,5.95
2023-08-14T21:03:48.185Z,8.55
2023-08-14T21:06:18.783Z,8.68
2023-08-14T21:08:47.280Z,7.93
2023-08-14T21:11:16.388Z,10.43
2023-08-14T21:13:46.592Z,14.95
2023-08-14T21:16:15.086Z,10.98
2023-08-14T21:18:45.238Z,15.85
2023-08-14T21:21:13.470Z,12.15
2023-08-14T21:23:41.681Z,12.48
2023-08-14T21:26:09.766Z,10.00
2023-08-14T21:28:37.810Z,10.82
2023-08-14T21:31:07.278Z,10.98
2023-08-14T21:33:35.496Z,13.82
2023-08-14T21:36:05.432Z,9.52
2023-08-14T21:38:35.487Z,9.48
2023-08-14T21:41:05.269Z,6.05
2023-08-14T21:43:33.667Z,7.57
2023-08-14T21:46:01.889Z,6.68
2023-08-14T21:48:31.428Z,6.53
2023-08-14T21:50:59.710Z,9.15
2023-08-14T21:53:27.887Z,9.90
2023-08-14T21:55:55.976Z,5.03
2023-08-14T21:58:23.961Z,5.57
2023-08-14T22:00:52.070Z,7.28
2023-08-14T22:03:20.303Z,6.18
2023-08-14T22:05:49.818Z,4.38
2023-08-14T22:08:18.096Z,5.15
2023-08-14T22:10:46.201Z,6.75
2023-08-14T22:13:14.464Z,8.57
2023-08-14T22:15:46.557Z,9.68
2023-08-14T22:18:15.483Z,4.38
2023-08-14T22:20:43.718Z,5.88
2023-08-14T22:23:14.029Z,4.72
2023-08-14T22:25:43.977Z,7.53
2023-08-14T22:28:12.026Z,7.10
2023-08-14T22:30:41.601Z,9.38
2023-08-14T22:33:11.810Z,7.15
2023-08-14T22:35:39.948Z,6.10
2023-08-14T22:38:08.028Z,6.15
2023-08-14T22:40:37.654Z,10.32
2023-08-14T22:43:05.966Z,7.50
2023-08-14T22:48:02.380Z,7.43
2023-08-14T22:50:31.315Z,9.23
2023-08-14T22:52:59.455Z,8.75
2023-08-14T22:55:27.654Z,10.02
2023-08-14T22:57:59.380Z,7.35
2023-08-14T23:00:27.392Z,7.43
2023-08-14T23:02:56.440Z,7.40
2023-08-14T23:05:28.220Z,7.15
2023-08-14T23:07:56.323Z,7.85
2023-08-14T23:10:24.456Z,9.73
2023-08-14T23:12:52.558Z,11.10
2023-08-14T23:15:22.164Z,14.65
2023-08-14T23:17:50.365Z,10.52
2023-08-14T23:20:18.695Z,12.90
2023-08-14T23:22:46.904Z,12.25
2023-08-14T23:25:14.939Z,21.85
2023-08-14T23:27:43.024Z,16.75
2023-08-14T23:30:12.140Z,18.83
2023-08-14T23:32:41.843Z,17.00
2023-08-14T23:35:10.529Z,20.88
2023-08-14T23:37:38.750Z,19.73
2023-08-14T23:40:09.172Z,21.52
2023-08-14T23:42:37.519Z,26.60
2023-08-14T23:45:06.498Z,35.65
2023-08-14T23:47:34.839Z,35.90
2023-08-14T23:50:05.589Z,38.72
2023-08-14T23:52:34.110Z,42.58
2023-08-14T23:55:02.795Z,40.90
2023-08-14T23:57:31.059Z,41.30
2023-08-14T23:59:59.263Z,40.35
